sensor_id;sensor_type;location;lat;lon;timestamp;pressure;altitude;pressure_sealevel;temperature
75273;BMP280;63869;52.344;16.928;2023-05-16T00:01:47;99841.00;;;13.64
75273;BMP280;63869;52.344;16.928;2023-05-16T00:04:12;99839.34;;;13.57
75273;BMP280;63869;52.344;16.928;2023-05-16T00:06:37;99834.41;;;13.55
75273;BMP280;63869;52.344;16.928;2023-05-16T00:09:03;99832.00;;;13.48
75273;BMP280;63869;52.344;16.928;2023-05-16T00:11:28;99824.84;;;13.45
75273;BMP280;63869;52.344;16.928;2023-05-16T00:13:53;99838.88;;;13.49
75273;BMP280;63869;52.344;16.928;2023-05-16T00:16:19;99835.28;;;13.43
75273;BMP280;63869;52.344;16.928;2023-05-16T00:18:46;99850.50;;;13.46
75273;BMP280;63869;52.344;16.928;2023-05-16T00:21:12;99844.53;;;13.42
75273;BMP280;63869;52.344;16.928;2023-05-16T00:23:37;99839.28;;;13.39
75273;BMP280;63869;52.344;16.928;2023-05-16T00:26:03;99853.16;;;13.37
75273;BMP280;63869;52.344;16.928;2023-05-16T00:28:28;99849.56;;;13.31
75273;BMP280;63869;52.344;16.928;2023-05-16T00:30:54;99858.69;;;13.34
75273;BMP280;63869;52.344;16.928;2023-05-16T00:33:19;99861.06;;;13.32
75273;BMP280;63869;52.344;16.928;2023-05-16T00:35:45;99853.16;;;13.28
75273;BMP280;63869;52.344;16.928;2023-05-16T00:38:10;99855.53;;;13.26
75273;BMP280;63869;52.344;16.928;2023-05-16T00:40:36;99855.09;;;13.28
75273;BMP280;63869;52.344;16.928;2023-05-16T00:43:01;99852.53;;;13.24
75273;BMP280;63869;52.344;16.928;2023-05-16T00:45:27;99851.00;;;13.23
75273;BMP280;63869;52.344;16.928;2023-05-16T00:47:52;99857.28;;;13.20
75273;BMP280;63869;52.344;16.928;2023-05-16T00:50:18;99850.25;;;13.13
75273;BMP280;63869;52.344;16.928;2023-05-16T00:52:43;99855.19;;;13.15
75273;BMP280;63869;52.344;16.928;2023-05-16T00:55:09;99866.22;;;13.17
75273;BMP280;63869;52.344;16.928;2023-05-16T00:57:36;99856.63;;;13.07
75273;BMP280;63869;52.344;16.928;2023-05-16T01:00:02;99869.66;;;13.08
75273;BMP280;63869;52.344;16.928;2023-05-16T01:02:28;99873.78;;;13.09
75273;BMP280;63869;52.344;16.928;2023-05-16T01:04:53;99881.13;;;13.09
75273;BMP280;63869;52.344;16.928;2023-05-16T01:07:19;99882.41;;;13.04
75273;BMP280;63869;52.344;16.928;2023-05-16T01:09:44;99894.31;;;13.03
75273;BMP280;63869;52.344;16.928;2023-05-16T01:17:36;99899.97;;;12.96
75273;BMP280;63869;52.344;16.928;2023-05-16T01:25:45;99911.44;;;12.97
75273;BMP280;63869;52.344;16.928;2023-05-16T01:28:13;99915.19;;;12.99
75273;BMP280;63869;52.344;16.928;2023-05-16T01:30:39;99928.47;;;13.03
75273;BMP280;63869;52.344;16.928;2023-05-16T01:33:08;99921.78;;;13.07
75273;BMP280;63869;52.344;16.928;2023-05-16T01:35:37;99936.16;;;13.13
75273;BMP280;63869;52.344;16.928;2023-05-16T01:38:10;99942.88;;;13.18
75273;BMP280;63869;52.344;16.928;2023-05-16T01:41:03;99948.84;;;13.22
75273;BMP280;63869;52.344;16.928;2023-05-16T01:43:39;99935.75;;;13.24
75273;BMP280;63869;52.344;16.928;2023-05-16T01:46:11;99939.78;;;13.29
75273;BMP280;63869;52.344;16.928;2023-05-16T01:48:43;99948.59;;;13.29
75273;BMP280;63869;52.344;16.928;2023-05-16T01:51:14;99946.81;;;13.35
75273;BMP280;63869;52.344;16.928;2023-05-16T01:53:39;99951.94;;;13.42
75273;BMP280;63869;52.344;16.928;2023-05-16T01:56:09;99970.16;;;13.47
75273;BMP280;63869;52.344;16.928;2023-05-16T01:58:36;99962.41;;;13.49
75273;BMP280;63869;52.344;16.928;2023-05-16T02:01:03;99964.66;;;13.51
75273;BMP280;63869;52.344;16.928;2023-05-16T02:03:29;99960.03;;;13.51
75273;BMP280;63869;52.344;16.928;2023-05-16T02:05:55;99968.28;;;13.57
75273;BMP280;63869;52.344;16.928;2023-05-16T02:08:20;99974.06;;;13.55
75273;BMP280;63869;52.344;16.928;2023-05-16T02:10:46;99971.69;;;13.57
75273;BMP280;63869;52.344;16.928;2023-05-16T02:13:11;99977.38;;;13.60
75273;BMP280;63869;52.344;16.928;2023-05-16T02:15:37;99965.16;;;13.58
75273;BMP280;63869;52.344;16.928;2023-05-16T02:18:02;99967.41;;;13.60
75273;BMP280;63869;52.344;16.928;2023-05-16T02:20:27;99976.75;;;13.55
75273;BMP280;63869;52.344;16.928;2023-05-16T02:22:53;99977.00;;;13.48
75273;BMP280;63869;52.344;16.928;2023-05-16T02:25:18;99990.00;;;13.50
75273;BMP280;63869;52.344;16.928;2023-05-16T02:27:43;99988.34;;;13.43
75273;BMP280;63869;52.344;16.928;2023-05-16T02:30:10;99990.44;;;13.39
75273;BMP280;63869;52.344;16.928;2023-05-16T02:32:37;99994.13;;;13.33
75273;BMP280;63869;52.344;16.928;2023-05-16T02:35:03;99994.69;;;13.28
75273;BMP280;63869;52.344;16.928;2023-05-16T02:37:28;100013.25;;;13.22
75273;BMP280;63869;52.344;16.928;2023-05-16T02:39:54;100012.34;;;13.16
75273;BMP280;63869;52.344;16.928;2023-05-16T02:42:19;100010.25;;;13.11
75273;BMP280;63869;52.344;16.928;2023-05-16T02:44:45;100023.97;;;13.13
75273;BMP280;63869;52.344;16.928;2023-05-16T02:47:10;100021.28;;;13.13
75273;BMP280;63869;52.344;16.928;2023-05-16T02:49:35;100017.84;;;13.12
75273;BMP280;63869;52.344;16.928;2023-05-16T02:52:00;100006.75;;;13.01
75273;BMP280;63869;52.344;16.928;2023-05-16T02:54:26;100029.66;;;13.15
75273;BMP280;63869;52.344;16.928;2023-05-16T02:56:51;100031.88;;;13.16
75273;BMP280;63869;52.344;16.928;2023-05-16T02:59:16;100033.53;;;13.14
75273;BMP280;63869;52.344;16.928;2023-05-16T03:01:42;100031.13;;;13.16
75273;BMP280;63869;52.344;16.928;2023-05-16T03:04:07;100035.31;;;13.17
75273;BMP280;63869;52.344;16.928;2023-05-16T03:06:33;100035.63;;;13.19
75273;BMP280;63869;52.344;16.928;2023-05-16T03:08:58;100044.63;;;13.25
75273;BMP280;63869;52.344;16.928;2023-05-16T03:11:23;100049.13;;;13.28
75273;BMP280;63869;52.344;16.928;2023-05-16T03:13:50;100057.19;;;13.28
75273;BMP280;63869;52.344;16.928;2023-05-16T03:16:16;100064.78;;;13.30
75273;BMP280;63869;52.344;16.928;2023-05-16T03:18:42;100070.31;;;13.35
75273;BMP280;63869;52.344;16.928;2023-05-16T03:21:07;100067.22;;;13.37
75273;BMP280;63869;52.344;16.928;2023-05-16T03:23:32;100064.25;;;13.35
75273;BMP280;63869;52.344;16.928;2023-05-16T03:25:58;100062.59;;;13.37
75273;BMP280;63869;52.344;16.928;2023-05-16T03:28:23;100061.09;;;13.36
75273;BMP280;63869;52.344;16.928;2023-05-16T03:30:49;100079.34;;;13.41
75273;BMP280;63869;52.344;16.928;2023-05-16T03:33:14;100073.25;;;13.41
75273;BMP280;63869;52.344;16.928;2023-05-16T03:35:40;100080.72;;;13.46
75273;BMP280;63869;52.344;16.928;2023-05-16T03:38:06;100075.59;;;13.39
75273;BMP280;63869;52.344;16.928;2023-05-16T03:40:32;100089.09;;;13.48
75273;BMP280;63869;52.344;16.928;2023-05-16T03:42:57;100073.09;;;13.44
75273;BMP280;63869;52.344;16.928;2023-05-16T03:45:22;100080.44;;;13.53
75273;BMP280;63869;52.344;16.928;2023-05-16T03:47:48;100078.94;;;13.52
75273;BMP280;63869;52.344;16.928;2023-05-16T03:50:14;100095.69;;;13.56
75273;BMP280;63869;52.344;16.928;2023-05-16T03:52:40;100084.84;;;13.60
75273;BMP280;63869;52.344;16.928;2023-05-16T03:55:06;100085.28;;;13.58
75273;BMP280;63869;52.344;16.928;2023-05-16T03:57:32;100105.41;;;13.63
75273;BMP280;63869;52.344;16.928;2023-05-16T03:59:58;100100.38;;;13.65
75273;BMP280;63869;52.344;16.928;2023-05-16T04:02:23;100088.13;;;13.64
75273;BMP280;63869;52.344;16.928;2023-05-16T04:04:49;100101.63;;;13.73
75273;BMP280;63869;52.344;16.928;2023-05-16T04:07:14;100094.28;;;13.73
75273;BMP280;63869;52.344;16.928;2023-05-16T04:09:39;100103.41;;;13.76
75273;BMP280;63869;52.344;16.928;2023-05-16T04:12:05;100116.41;;;13.77
75273;BMP280;63869;52.344;16.928;2023-05-16T04:14:31;100120.13;;;13.71
75273;BMP280;63869;52.344;16.928;2023-05-16T04:16:56;100125.59;;;13.67
75273;BMP280;63869;52.344;16.928;2023-05-16T04:19:21;100136.16;;;13.62
75273;BMP280;63869;52.344;16.928;2023-05-16T04:21:47;100150.66;;;13.42
75273;BMP280;63869;52.344;16.928;2023-05-16T04:24:12;100153.13;;;13.15
75273;BMP280;63869;52.344;16.928;2023-05-16T04:26:37;100157.78;;;13.02
75273;BMP280;63869;52.344;16.928;2023-05-16T04:29:03;100163.47;;;12.91
75273;BMP280;63869;52.344;16.928;2023-05-16T04:31:28;100171.13;;;12.80
75273;BMP280;63869;52.344;16.928;2023-05-16T04:33:54;100165.34;;;12.69
75273;BMP280;63869;52.344;16.928;2023-05-16T04:36:21;100182.19;;;12.69
75273;BMP280;63869;52.344;16.928;2023-05-16T04:38:46;100175.56;;;12.61
75273;BMP280;63869;52.344;16.928;2023-05-16T04:41:12;100185.63;;;12.57
75273;BMP280;63869;52.344;16.928;2023-05-16T04:43:38;100191.53;;;12.52
75273;BMP280;63869;52.344;16.928;2023-05-16T04:46:04;100174.34;;;12.37
75273;BMP280;63869;52.344;16.928;2023-05-16T04:48:31;100194.06;;;12.43
75273;BMP280;63869;52.344;16.928;2023-05-16T04:50:57;100198.91;;;12.48
75273;BMP280;63869;52.344;16.928;2023-05-16T04:53:22;100205.56;;;12.43
75273;BMP280;63869;52.344;16.928;2023-05-16T04:55:47;100207.50;;;12.43
75273;BMP280;63869;52.344;16.928;2023-05-16T04:58:13;100218.91;;;12.47
75273;BMP280;63869;52.344;16.928;2023-05-16T05:00:38;100212.31;;;12.48
75273;BMP280;63869;52.344;16.928;2023-05-16T05:03:05;100223.38;;;12.50
75273;BMP280;63869;52.344;16.928;2023-05-16T05:05:30;100213.31;;;12.54
75273;BMP280;63869;52.344;16.928;2023-05-16T05:07:57;100218.69;;;12.54
75273;BMP280;63869;52.344;16.928;2023-05-16T05:10:23;100219.97;;;12.62
75273;BMP280;63869;52.344;16.928;2023-05-16T05:12:48;100216.84;;;12.64
75273;BMP280;63869;52.344;16.928;2023-05-16T05:15:13;100218.03;;;12.63
75273;BMP280;63869;52.344;16.928;2023-05-16T05:17:39;100212.44;;;12.57
75273;BMP280;63869;52.344;16.928;2023-05-16T05:20:05;100231.34;;;12.66
75273;BMP280;63869;52.344;16.928;2023-05-16T05:22:50;100214.50;;;12.66
75273;BMP280;63869;52.344;16.928;2023-05-16T05:25:17;100225.84;;;12.82
75273;BMP280;63869;52.344;16.928;2023-05-16T05:27:42;100229.06;;;12.90
75273;BMP280;63869;52.344;16.928;2023-05-16T05:30:10;100221.69;;;12.81
75273;BMP280;63869;52.344;16.928;2023-05-16T05:32:36;100221.56;;;12.98
75273;BMP280;63869;52.344;16.928;2023-05-16T05:35:02;100225.16;;;13.16
75273;BMP280;63869;52.344;16.928;2023-05-16T05:37:28;100237.66;;;13.45
75273;BMP280;63869;52.344;16.928;2023-05-16T05:39:53;100237.81;;;13.63
75273;BMP280;63869;52.344;16.928;2023-05-16T05:42:18;100250.00;;;13.77
75273;BMP280;63869;52.344;16.928;2023-05-16T05:44:43;100240.75;;;13.78
75273;BMP280;63869;52.344;16.928;2023-05-16T05:47:09;100240.84;;;13.87
75273;BMP280;63869;52.344;16.928;2023-05-16T05:49:35;100260.41;;;14.09
75273;BMP280;63869;52.344;16.928;2023-05-16T05:52:01;100257.00;;;14.18
75273;BMP280;63869;52.344;16.928;2023-05-16T05:54:26;100253.00;;;14.22
75273;BMP280;63869;52.344;16.928;2023-05-16T05:56:51;100264.22;;;14.30
75273;BMP280;63869;52.344;16.928;2023-05-16T05:59:18;100267.66;;;14.30
75273;BMP280;63869;52.344;16.928;2023-05-16T06:01:44;100266.91;;;14.21
75273;BMP280;63869;52.344;16.928;2023-05-16T06:04:09;100280.88;;;14.16
75273;BMP280;63869;52.344;16.928;2023-05-16T06:06:36;100278.63;;;14.14
75273;BMP280;63869;52.344;16.928;2023-05-16T06:09:01;100279.50;;;14.11
75273;BMP280;63869;52.344;16.928;2023-05-16T06:11:27;100268.75;;;14.11
75273;BMP280;63869;52.344;16.928;2023-05-16T06:13:52;100266.75;;;14.24
75273;BMP280;63869;52.344;16.928;2023-05-16T06:16:17;100272.44;;;14.26
75273;BMP280;63869;52.344;16.928;2023-05-16T06:18:43;100277.75;;;14.39
75273;BMP280;63869;52.344;16.928;2023-05-16T06:21:09;100278.34;;;14.43
75273;BMP280;63869;52.344;16.928;2023-05-16T06:23:34;100299.00;;;14.46
75273;BMP280;63869;52.344;16.928;2023-05-16T06:26:00;100305.09;;;14.47
75273;BMP280;63869;52.344;16.928;2023-05-16T06:28:26;100311.22;;;14.47
75273;BMP280;63869;52.344;16.928;2023-05-16T06:30:51;100329.63;;;14.71
75273;BMP280;63869;52.344;16.928;2023-05-16T06:33:17;100340.00;;;14.81
75273;BMP280;63869;52.344;16.928;2023-05-16T06:35:42;100344.13;;;14.73
75273;BMP280;63869;52.344;16.928;2023-05-16T06:38:08;100352.47;;;14.66
75273;BMP280;63869;52.344;16.928;2023-05-16T06:40:33;100355.72;;;14.61
75273;BMP280;63869;52.344;16.928;2023-05-16T06:42:59;100343.81;;;14.71
75273;BMP280;63869;52.344;16.928;2023-05-16T06:45:24;100340.84;;;14.78
75273;BMP280;63869;52.344;16.928;2023-05-16T06:47:49;100359.00;;;14.96
75273;BMP280;63869;52.344;16.928;2023-05-16T06:50:15;100352.88;;;14.86
75273;BMP280;63869;52.344;16.928;2023-05-16T06:52:40;100344.47;;;14.84
75273;BMP280;63869;52.344;16.928;2023-05-16T06:55:06;100343.38;;;14.73
75273;BMP280;63869;52.344;16.928;2023-05-16T06:57:35;100345.25;;;14.63
75273;BMP280;63869;52.344;16.928;2023-05-16T07:00:00;100345.69;;;14.52
75273;BMP280;63869;52.344;16.928;2023-05-16T07:02:25;100374.00;;;14.44
75273;BMP280;63869;52.344;16.928;2023-05-16T07:04:51;100350.53;;;14.45
75273;BMP280;63869;52.344;16.928;2023-05-16T07:07:16;100368.94;;;14.46
75273;BMP280;63869;52.344;16.928;2023-05-16T07:09:41;100374.22;;;14.50
75273;BMP280;63869;52.344;16.928;2023-05-16T07:12:08;100367.31;;;14.71
75273;BMP280;63869;52.344;16.928;2023-05-16T07:14:33;100361.47;;;15.03
75273;BMP280;63869;52.344;16.928;2023-05-16T07:16:59;100361.81;;;15.23
75273;BMP280;63869;52.344;16.928;2023-05-16T07:19:25;100364.19;;;15.12
75273;BMP280;63869;52.344;16.928;2023-05-16T07:21:51;100350.88;;;15.18
75273;BMP280;63869;52.344;16.928;2023-05-16T07:24:16;100350.16;;;15.26
75273;BMP280;63869;52.344;16.928;2023-05-16T07:26:42;100351.81;;;15.33
75273;BMP280;63869;52.344;16.928;2023-05-16T07:29:07;100355.66;;;15.23
75273;BMP280;63869;52.344;16.928;2023-05-16T07:31:37;100361.19;;;15.10
75273;BMP280;63869;52.344;16.928;2023-05-16T07:34:02;100360.09;;;15.07
75273;BMP280;63869;52.344;16.928;2023-05-16T07:36:34;100371.81;;;15.14
75273;BMP280;63869;52.344;16.928;2023-05-16T07:39:00;100350.25;;;15.04
75273;BMP280;63869;52.344;16.928;2023-05-16T07:41:25;100369.88;;;15.14
75273;BMP280;63869;52.344;16.928;2023-05-16T07:43:51;100354.78;;;15.17
75273;BMP280;63869;52.344;16.928;2023-05-16T07:46:16;100352.53;;;15.24
75273;BMP280;63869;52.344;16.928;2023-05-16T07:48:44;100364.72;;;15.47
75273;BMP280;63869;52.344;16.928;2023-05-16T07:51:10;100362.03;;;15.47
75273;BMP280;63869;52.344;16.928;2023-05-16T07:53:38;100359.16;;;15.51
75273;BMP280;63869;52.344;16.928;2023-05-16T07:56:04;100362.34;;;15.67
75273;BMP280;63869;52.344;16.928;2023-05-16T07:58:30;100353.84;;;15.78
75273;BMP280;63869;52.344;16.928;2023-05-16T08:00:55;100352.94;;;15.99
75273;BMP280;63869;52.344;16.928;2023-05-16T08:03:21;100332.09;;;16.09
75273;BMP280;63869;52.344;16.928;2023-05-16T08:05:47;100361.09;;;16.41
75273;BMP280;63869;52.344;16.928;2023-05-16T08:08:13;100353.31;;;16.34
75273;BMP280;63869;52.344;16.928;2023-05-16T08:10:38;100347.88;;;16.43
75273;BMP280;63869;52.344;16.928;2023-05-16T08:13:03;100365.81;;;16.65
75273;BMP280;63869;52.344;16.928;2023-05-16T08:15:32;100357.91;;;16.85
75273;BMP280;63869;52.344;16.928;2023-05-16T08:17:57;100367.47;;;17.04
75273;BMP280;63869;52.344;16.928;2023-05-16T08:20:23;100357.44;;;16.95
75273;BMP280;63869;52.344;16.928;2023-05-16T08:22:50;100371.69;;;16.96
75273;BMP280;63869;52.344;16.928;2023-05-16T08:25:16;100357.44;;;16.95
75273;BMP280;63869;52.344;16.928;2023-05-16T08:27:43;100363.03;;;17.16
75273;BMP280;63869;52.344;16.928;2023-05-16T08:30:10;100367.34;;;17.46
75273;BMP280;63869;52.344;16.928;2023-05-16T08:32:36;100372.28;;;17.48
75273;BMP280;63869;52.344;16.928;2023-05-16T08:35:01;100376.34;;;17.52
75273;BMP280;63869;52.344;16.928;2023-05-16T08:37:28;100372.53;;;17.59
75273;BMP280;63869;52.344;16.928;2023-05-16T08:39:53;100365.56;;;17.67
75273;BMP280;63869;52.344;16.928;2023-05-16T08:42:18;100373.13;;;17.77
75273;BMP280;63869;52.344;16.928;2023-05-16T08:44:44;100389.50;;;17.74
75273;BMP280;63869;52.344;16.928;2023-05-16T08:47:19;100385.03;;;17.71
75273;BMP280;63869;52.344;16.928;2023-05-16T08:49:47;100401.50;;;17.82
75273;BMP280;63869;52.344;16.928;2023-05-16T08:52:13;100400.59;;;18.00
75273;BMP280;63869;52.344;16.928;2023-05-16T08:54:42;100386.13;;;18.03
75273;BMP280;63869;52.344;16.928;2023-05-16T08:57:08;100401.16;;;18.18
75273;BMP280;63869;52.344;16.928;2023-05-16T08:59:34;100390.53;;;18.15
75273;BMP280;63869;52.344;16.928;2023-05-16T09:02:00;100390.13;;;18.07
75273;BMP280;63869;52.344;16.928;2023-05-16T09:04:32;100393.88;;;18.25
75273;BMP280;63869;52.344;16.928;2023-05-16T09:07:02;100389.97;;;18.40
75273;BMP280;63869;52.344;16.928;2023-05-16T09:09:28;100386.59;;;18.45
75273;BMP280;63869;52.344;16.928;2023-05-16T09:11:56;100380.03;;;18.52
75273;BMP280;63869;52.344;16.928;2023-05-16T09:14:22;100388.81;;;18.62
75273;BMP280;63869;52.344;16.928;2023-05-16T09:17:08;100383.72;;;18.49
75273;BMP280;63869;52.344;16.928;2023-05-16T09:19:38;100381.56;;;18.38
75273;BMP280;63869;52.344;16.928;2023-05-16T09:22:10;100400.19;;;18.80
75273;BMP280;63869;52.344;16.928;2023-05-16T09:24:44;100391.13;;;18.69
75273;BMP280;63869;52.344;16.928;2023-05-16T09:27:19;100393.28;;;18.79
75273;BMP280;63869;52.344;16.928;2023-05-16T09:29:49;100368.34;;;18.75
75273;BMP280;63869;52.344;16.928;2023-05-16T09:32:20;100382.19;;;18.97
75273;BMP280;63869;52.344;16.928;2023-05-16T09:34:48;100386.81;;;19.12
75273;BMP280;63869;52.344;16.928;2023-05-16T09:37:16;100390.91;;;19.22
75273;BMP280;63869;52.344;16.928;2023-05-16T09:40:05;100414.47;;;19.16
75273;BMP280;63869;52.344;16.928;2023-05-16T09:42:35;100426.00;;;19.31
75273;BMP280;63869;52.344;16.928;2023-05-16T09:45:06;100417.78;;;19.46
75273;BMP280;63869;52.344;16.928;2023-05-16T09:47:33;100407.84;;;19.37
75273;BMP280;63869;52.344;16.928;2023-05-16T09:49:59;100416.34;;;19.50
75273;BMP280;63869;52.344;16.928;2023-05-16T09:52:28;100399.53;;;19.41
75273;BMP280;63869;52.344;16.928;2023-05-16T09:55:07;100421.06;;;19.70
75273;BMP280;63869;52.344;16.928;2023-05-16T09:57:38;100430.25;;;19.78
75273;BMP280;63869;52.344;16.928;2023-05-16T10:00:09;100402.38;;;19.77
75273;BMP280;63869;52.344;16.928;2023-05-16T10:02:36;100413.63;;;19.91
75273;BMP280;63869;52.344;16.928;2023-05-16T10:05:03;100403.66;;;19.82
75273;BMP280;63869;52.344;16.928;2023-05-16T10:07:30;100406.34;;;19.56
75273;BMP280;63869;52.344;16.928;2023-05-16T10:09:57;100418.00;;;19.42
75273;BMP280;63869;52.344;16.928;2023-05-16T10:12:29;100413.13;;;19.26
75273;BMP280;63869;52.344;16.928;2023-05-16T10:15:22;100445.28;;;19.18
75273;BMP280;63869;52.344;16.928;2023-05-16T10:17:54;100432.72;;;19.01
75273;BMP280;63869;52.344;16.928;2023-05-16T10:20:28;100449.63;;;19.10
75273;BMP280;63869;52.344;16.928;2023-05-16T10:22:55;100417.59;;;19.09
75273;BMP280;63869;52.344;16.928;2023-05-16T10:25:38;100438.78;;;19.45
75273;BMP280;63869;52.344;16.928;2023-05-16T10:43:45;100454.47;;;19.21
75273;BMP280;63869;52.344;16.928;2023-05-16T10:46:28;100446.47;;;19.12
75273;BMP280;63869;52.344;16.928;2023-05-16T10:49:26;100476.81;;;19.16
75273;BMP280;63869;52.344;16.928;2023-05-16T10:52:31;100473.16;;;19.19
75273;BMP280;63869;52.344;16.928;2023-05-16T10:55:23;100485.09;;;18.92
75273;BMP280;63869;52.344;16.928;2023-05-16T10:57:55;100464.75;;;18.67
75273;BMP280;63869;52.344;16.928;2023-05-16T11:00:25;100463.34;;;18.72
75273;BMP280;63869;52.344;16.928;2023-05-16T11:02:52;100470.44;;;18.69
75273;BMP280;63869;52.344;16.928;2023-05-16T11:05:40;100482.56;;;18.88
75273;BMP280;63869;52.344;16.928;2023-05-16T11:08:24;100476.56;;;19.14
75273;BMP280;63869;52.344;16.928;2023-05-16T11:13:55;100490.69;;;19.78
75273;BMP280;63869;52.344;16.928;2023-05-16T11:16:27;100510.94;;;19.57
75273;BMP280;63869;52.344;16.928;2023-05-16T11:18:53;100521.34;;;19.44
75273;BMP280;63869;52.344;16.928;2023-05-16T11:21:21;100514.66;;;19.25
75273;BMP280;63869;52.344;16.928;2023-05-16T11:26:52;100520.88;;;18.96
75273;BMP280;63869;52.344;16.928;2023-05-16T11:29:17;100520.41;;;19.12
75273;BMP280;63869;52.344;16.928;2023-05-16T11:31:43;100520.59;;;19.44
75273;BMP280;63869;52.344;16.928;2023-05-16T11:34:08;100531.66;;;19.60
75273;BMP280;63869;52.344;16.928;2023-05-16T11:36:34;100534.16;;;19.64
75273;BMP280;63869;52.344;16.928;2023-05-16T11:39:05;100551.72;;;19.48
75273;BMP280;63869;52.344;16.928;2023-05-16T11:41:31;100532.03;;;19.33
75273;BMP280;63869;52.344;16.928;2023-05-16T11:43:59;100545.69;;;19.38
75273;BMP280;63869;52.344;16.928;2023-05-16T11:46:25;100542.94;;;19.53
75273;BMP280;63869;52.344;16.928;2023-05-16T11:48:53;100539.13;;;19.45
75273;BMP280;63869;52.344;16.928;2023-05-16T11:51:18;100537.91;;;19.66
75273;BMP280;63869;52.344;16.928;2023-05-16T11:53:46;100528.94;;;19.80
75273;BMP280;63869;52.344;16.928;2023-05-16T11:56:13;100536.97;;;20.10
75273;BMP280;63869;52.344;16.928;2023-05-16T11:58:40;100548.28;;;20.54
75273;BMP280;63869;52.344;16.928;2023-05-16T12:01:06;100544.06;;;20.79
75273;BMP280;63869;52.344;16.928;2023-05-16T12:03:33;100550.38;;;20.96
75273;BMP280;63869;52.344;16.928;2023-05-16T12:05:59;100547.28;;;20.83
75273;BMP280;63869;52.344;16.928;2023-05-16T12:08:25;100551.47;;;20.53
75273;BMP280;63869;52.344;16.928;2023-05-16T12:10:51;100568.22;;;20.26
75273;BMP280;63869;52.344;16.928;2023-05-16T12:13:19;100539.06;;;19.60
75273;BMP280;63869;52.344;16.928;2023-05-16T12:15:46;100551.50;;;19.31
75273;BMP280;63869;52.344;16.928;2023-05-16T12:18:12;100561.06;;;19.12
75273;BMP280;63869;52.344;16.928;2023-05-16T12:20:38;100557.69;;;18.88
75273;BMP280;63869;52.344;16.928;2023-05-16T12:23:04;100552.00;;;18.71
75273;BMP280;63869;52.344;16.928;2023-05-16T12:25:31;100551.22;;;18.56
75273;BMP280;63869;52.344;16.928;2023-05-16T12:27:58;100548.16;;;18.48
75273;BMP280;63869;52.344;16.928;2023-05-16T12:30:25;100521.22;;;18.30
75273;BMP280;63869;52.344;16.928;2023-05-16T12:33:16;100553.66;;;18.54
75273;BMP280;63869;52.344;16.928;2023-05-16T12:35:43;100544.41;;;18.46
75273;BMP280;63869;52.344;16.928;2023-05-16T12:38:11;100537.66;;;18.56
75273;BMP280;63869;52.344;16.928;2023-05-16T12:40:38;100558.81;;;18.81
75273;BMP280;63869;52.344;16.928;2023-05-16T12:43:04;100569.38;;;18.94
75273;BMP280;63869;52.344;16.928;2023-05-16T12:45:32;100565.94;;;18.93
75273;BMP280;63869;52.344;16.928;2023-05-16T12:48:03;100552.84;;;18.77
75273;BMP280;63869;52.344;16.928;2023-05-16T12:50:32;100546.84;;;18.44
75273;BMP280;63869;52.344;16.928;2023-05-16T12:52:58;100571.44;;;18.31
75273;BMP280;63869;52.344;16.928;2023-05-16T12:55:24;100575.88;;;18.20
75273;BMP280;63869;52.344;16.928;2023-05-16T12:57:51;100583.22;;;18.28
75273;BMP280;63869;52.344;16.928;2023-05-16T13:00:18;100577.38;;;18.44
75273;BMP280;63869;52.344;16.928;2023-05-16T13:02:44;100586.91;;;18.69
75273;BMP280;63869;52.344;16.928;2023-05-16T13:05:10;100562.56;;;18.98
75273;BMP280;63869;52.344;16.928;2023-05-16T13:07:37;100584.19;;;19.57
75273;BMP280;63869;52.344;16.928;2023-05-16T13:10:14;100575.09;;;19.80
75273;BMP280;63869;52.344;16.928;2023-05-16T13:12:40;100584.53;;;19.85
75273;BMP280;63869;52.344;16.928;2023-05-16T13:15:10;100582.44;;;19.74
75273;BMP280;63869;52.344;16.928;2023-05-16T13:17:40;100589.47;;;19.66
75273;BMP280;63869;52.344;16.928;2023-05-16T13:20:06;100592.78;;;19.41
75273;BMP280;63869;52.344;16.928;2023-05-16T13:22:38;100590.03;;;19.21
75273;BMP280;63869;52.344;16.928;2023-05-16T13:25:04;100582.19;;;19.08
75273;BMP280;63869;52.344;16.928;2023-05-16T13:27:31;100579.94;;;18.77
75273;BMP280;63869;52.344;16.928;2023-05-16T13:29:56;100585.34;;;18.63
75273;BMP280;63869;52.344;16.928;2023-05-16T13:32:22;100577.84;;;18.43
75273;BMP280;63869;52.344;16.928;2023-05-16T13:34:48;100574.31;;;18.04
75273;BMP280;63869;52.344;16.928;2023-05-16T13:37:14;100577.44;;;17.88
75273;BMP280;63869;52.344;16.928;2023-05-16T13:39:40;100570.03;;;17.64
75273;BMP280;63869;52.344;16.928;2023-05-16T13:42:05;100578.03;;;17.59
75273;BMP280;63869;52.344;16.928;2023-05-16T13:44:31;100579.69;;;17.56
75273;BMP280;63869;52.344;16.928;2023-05-16T13:46:56;100580.88;;;17.55
75273;BMP280;63869;52.344;16.928;2023-05-16T13:49:24;100576.81;;;17.60
75273;BMP280;63869;52.344;16.928;2023-05-16T13:51:50;100590.31;;;17.60
75273;BMP280;63869;52.344;16.928;2023-05-16T13:54:16;100594.59;;;17.52
75273;BMP280;63869;52.344;16.928;2023-05-16T13:56:42;100600.75;;;17.43
75273;BMP280;63869;52.344;16.928;2023-05-16T13:59:08;100598.81;;;17.44
75273;BMP280;63869;52.344;16.928;2023-05-16T14:01:34;100601.75;;;17.55
75273;BMP280;63869;52.344;16.928;2023-05-16T14:04:00;100596.34;;;17.55
75273;BMP280;63869;52.344;16.928;2023-05-16T14:06:27;100603.16;;;17.50
75273;BMP280;63869;52.344;16.928;2023-05-16T14:08:52;100606.34;;;17.49
75273;BMP280;63869;52.344;16.928;2023-05-16T14:11:18;100608.69;;;17.47
75273;BMP280;63869;52.344;16.928;2023-05-16T14:13:44;100595.88;;;17.23
75273;BMP280;63869;52.344;16.928;2023-05-16T14:16:10;100606.69;;;17.14
75273;BMP280;63869;52.344;16.928;2023-05-16T14:18:35;100592.00;;;17.06
75273;BMP280;63869;52.344;16.928;2023-05-16T14:21:01;100587.81;;;16.87